Time;durP1;ratioP1;P1;durP2;ratioP2;P2;SDS_P1;SDS_P2;PMS_P1;PMS_P2;Temp;Humidity;BMP_temperature;BMP_pressure;BME280_temperature;BME280_humidity;BME280_pressure;Samples;Min_cycle;Max_cycle;Signal;HPM_P1;HPM_P2
2023/12/20 00:00:39;;;;;;;6.80;0.65;;;7.10;99.90;;;;;;5031510;28;20037;-79
2023/12/20 00:03:05;;;;;;;5.22;0.60;;;7.00;99.90;;;;;;5077609;28;20123;-79
2023/12/20 00:05:35;;;;;;;7.47;1.42;;;7.00;99.90;;;;;;5025826;28;20033;-79
2023/12/20 00:08:00;;;;;;;6.03;0.65;;;7.00;99.90;;;;;;5048647;28;20045;-78
2023/12/20 00:10:26;;;;;;;4.50;0.70;;;6.90;99.90;;;;;;5035936;28;20563;-80
2023/12/20 00:12:52;;;;;;;6.85;0.60;;;6.90;99.90;;;;;;5037884;28;20040;-79
2023/12/20 00:15:17;;;;;;;6.60;0.70;;;6.80;99.90;;;;;;5043256;28;20020;-81
2023/12/20 00:17:43;;;;;;;5.60;0.73;;;6.90;99.90;;;;;;5028230;28;20030;-79
2023/12/20 00:20:09;;;;;;;7.53;0.55;;;6.90;99.90;;;;;;5045539;28;20429;-79
2023/12/20 00:22:34;;;;;;;4.47;0.70;;;6.90;99.90;;;;;;5080244;28;20071;-78
2023/12/20 00:25:00;;;;;;;6.13;1.23;;;6.80;99.90;;;;;;5047021;28;20447;-82
2023/12/20 00:27:26;;;;;;;5.97;0.85;;;6.80;99.90;;;;;;5047903;28;20064;-79
2023/12/20 00:29:51;;;;;;;5.10;0.82;;;6.80;99.90;;;;;;5035586;28;20044;-79
2023/12/20 00:32:17;;;;;;;6.55;0.80;;;6.80;99.90;;;;;;5034895;28;20025;-80
2023/12/20 00:34:43;;;;;;;8.95;0.85;;;6.80;99.90;;;;;;5046529;28;20060;-78
2023/12/20 00:37:09;;;;;;;10.70;1.13;;;6.80;99.90;;;;;;5065043;28;20048;-79
2023/12/20 00:39:34;;;;;;;8.48;1.50;;;6.90;99.90;;;;;;5041330;28;20041;-79
2023/12/20 00:42:00;;;;;;;6.70;0.80;;;6.90;99.90;;;;;;5042772;28;20741;-78
2023/12/20 00:44:26;;;;;;;5.97;1.15;;;7.00;99.90;;;;;;5035918;28;20365;-79
2023/12/20 00:46:52;;;;;;;9.18;0.98;;;7.00;99.90;;;;;;5045084;28;20075;-79
2023/12/20 00:49:17;;;;;;;11.63;1.30;;;7.00;99.90;;;;;;5041023;28;20017;-79
2023/12/20 00:51:43;;;;;;;13.20;1.10;;;7.00;99.90;;;;;;5046549;28;20033;-80
2023/12/20 00:54:09;;;;;;;6.53;0.95;;;6.80;99.90;;;;;;5043902;28;20037;-80
2023/12/20 00:56:35;;;;;;;14.55;1.10;;;6.80;99.90;;;;;;5046636;28;20075;-79
2023/12/20 00:59:01;;;;;;;6.05;0.70;;;6.80;99.90;;;;;;5045799;28;20079;-79
2023/12/20 01:01:26;;;;;;;11.30;1.48;;;6.80;99.90;;;;;;5058147;28;20022;-78
2023/12/20 01:03:52;;;;;;;8.45;0.70;;;6.80;99.90;;;;;;5046236;28;20036;-80
2023/12/20 01:06:18;;;;;;;13.07;0.80;;;6.70;99.90;;;;;;5076667;28;20106;-79
2023/12/20 01:08:44;;;;;;;8.95;0.70;;;6.70;99.90;;;;;;5062134;28;20025;-78
2023/12/20 01:11:09;;;;;;;11.27;0.70;;;6.60;99.90;;;;;;5040948;28;20036;-79
2023/12/20 01:13:35;;;;;;;14.45;1.20;;;6.60;99.90;;;;;;5035302;28;20032;-80
2023/12/20 01:16:01;;;;;;;17.17;1.33;;;6.60;99.90;;;;;;5077268;28;20056;-81
2023/12/20 01:18:27;;;;;;;8.95;0.95;;;6.60;99.90;;;;;;5048300;28;20380;-80
2023/12/20 01:20:52;;;;;;;12.52;0.70;;;6.50;99.90;;;;;;5063137;28;20564;-78
2023/12/20 01:23:18;;;;;;;5.78;0.50;;;6.50;99.90;;;;;;5075805;28;20022;-80
2023/12/20 01:25:43;;;;;;;8.90;0.50;;;6.50;99.90;;;;;;5046683;28;20044;-79
2023/12/20 01:28:09;;;;;;;7.80;0.60;;;6.40;99.90;;;;;;5045670;28;20033;-80
2023/12/20 01:30:35;;;;;;;10.93;0.82;;;6.40;99.90;;;;;;5037064;28;20086;-80
2023/12/20 01:33:01;;;;;;;7.30;1.45;;;6.50;99.90;;;;;;5041333;28;20086;-79
2023/12/20 01:35:27;;;;;;;6.20;0.60;;;6.40;99.90;;;;;;5043839;28;20032;-79
2023/12/20 01:37:56;;;;;;;9.00;0.60;;;6.30;99.90;;;;;;5047738;28;20512;-79
2023/12/20 01:40:22;;;;;;;8.18;0.68;;;6.40;99.90;;;;;;5030832;28;20045;-79
2023/12/20 01:42:58;;;;;;;12.27;0.95;;;6.30;99.90;;;;;;5040650;28;20045;-79
2023/12/20 01:45:24;;;;;;;13.10;0.90;;;6.40;99.90;;;;;;5042137;28;20052;-80
2023/12/20 01:47:50;;;;;;;9.50;0.60;;;6.40;99.90;;;;;;5050707;28;20497;-81
2023/12/20 01:50:16;;;;;;;8.50;0.70;;;6.30;99.90;;;;;;5078503;28;20033;-81
2023/12/20 01:52:43;;;;;;;15.50;1.00;;;6.20;99.90;;;;;;5038051;28;20027;-81
2023/12/20 01:55:13;;;;;;;7.43;1.10;;;6.20;99.90;;;;;;5049377;28;20111;-79
2023/12/20 01:57:43;;;;;;;10.60;0.68;;;6.20;99.90;;;;;;5051837;28;20437;-82
2023/12/20 02:00:10;;;;;;;12.43;1.00;;;6.20;99.90;;;;;;5051462;28;20044;-83
2023/12/20 02:02:38;;;;;;;14.32;0.80;;;6.20;99.90;;;;;;5045677;28;20455;-79
2023/12/20 02:05:05;;;;;;;6.72;0.63;;;6.20;99.90;;;;;;5044224;28;20477;-82
2023/12/20 02:07:31;;;;;;;7.72;0.80;;;6.10;99.90;;;;;;5058202;28;20037;-80
2023/12/20 02:09:56;;;;;;;8.35;0.65;;;6.20;99.90;;;;;;5031490;28;20029;-79
2023/12/20 02:12:22;;;;;;;6.95;1.05;;;6.20;99.90;;;;;;5054189;28;20025;-80
2023/12/20 02:14:49;;;;;;;10.10;0.55;;;6.20;99.90;;;;;;5041091;28;20033;-80
2023/12/20 02:17:15;;;;;;;10.90;0.70;;;6.20;99.90;;;;;;5048593;28;20063;-80
2023/12/20 02:19:41;;;;;;;12.15;0.80;;;6.30;99.90;;;;;;5047811;28;20052;-79
2023/12/20 02:22:10;;;;;;;8.75;1.40;;;6.30;99.90;;;;;;5048179;28;20494;-80
2023/12/20 02:24:36;;;;;;;13.23;1.38;;;6.40;99.90;;;;;;5048105;28;20074;-79
2023/12/20 02:27:02;;;;;;;4.72;0.50;;;6.30;99.90;;;;;;5043317;28;20061;-79
2023/12/20 02:29:28;;;;;;;11.98;1.17;;;6.20;99.90;;;;;;5047110;28;20029;-80
2023/12/20 02:31:54;;;;;;;12.20;0.85;;;6.20;99.90;;;;;;5048539;28;20036;-80
2023/12/20 02:34:19;;;;;;;9.63;1.00;;;6.20;99.90;;;;;;5037007;28;20480;-81
2023/12/20 02:36:45;;;;;;;8.70;0.60;;;6.10;99.90;;;;;;5041194;28;20064;-80
2023/12/20 02:39:10;;;;;;;6.28;1.00;;;6.10;99.90;;;;;;5037259;28;20029;-80
2023/12/20 02:41:36;;;;;;;7.97;0.63;;;6.10;99.90;;;;;;5048165;28;20036;-80
2023/12/20 02:44:03;;;;;;;10.88;1.08;;;6.10;99.90;;;;;;5077584;28;20029;-79
2023/12/20 02:46:28;;;;;;;9.00;0.95;;;6.00;99.90;;;;;;5045027;28;20029;-81
2023/12/20 02:48:54;;;;;;;12.85;1.75;;;6.00;99.90;;;;;;5040014;28;20029;-80
2023/12/20 02:51:20;;;;;;;8.90;1.23;;;6.00;99.90;;;;;;5047488;28;20036;-80
2023/12/20 02:53:45;;;;;;;10.75;2.17;;;6.00;99.90;;;;;;5029814;28;20032;-83
2023/12/20 02:56:11;;;;;;;12.32;1.27;;;6.10;99.90;;;;;;5048739;28;20116;-81
2023/12/20 02:58:37;;;;;;;11.57;1.70;;;6.10;99.90;;;;;;5046948;28;20079;-80
2023/12/20 03:01:03;;;;;;;11.63;1.55;;;6.20;99.90;;;;;;5045059;28;20041;-84
2023/12/20 03:03:28;;;;;;;7.78;1.35;;;6.10;99.90;;;;;;5080152;28;20033;-80
2023/12/20 03:05:54;;;;;;;16.33;1.60;;;6.10;99.90;;;;;;5047447;28;20399;-81
2023/12/20 03:08:19;;;;;;;10.93;1.77;;;6.20;99.90;;;;;;5043867;28;20024;-83
2023/12/20 03:10:45;;;;;;;16.33;1.83;;;6.20;99.90;;;;;;5078024;28;20048;-80
2023/12/20 03:13:11;;;;;;;9.52;0.80;;;6.30;99.90;;;;;;5048185;28;20033;-80
2023/12/20 03:15:37;;;;;;;9.25;0.88;;;6.40;99.90;;;;;;5046280;28;20078;-79
2023/12/20 03:18:03;;;;;;;13.15;1.00;;;6.40;99.90;;;;;;5050057;28;20407;-81
2023/12/20 03:20:30;;;;;;;13.85;1.42;;;6.40;99.90;;;;;;5039228;28;20127;-78
2023/12/20 03:22:56;;;;;;;10.18;1.00;;;6.50;99.90;;;;;;5036243;28;20028;-82
2023/12/20 03:25:22;;;;;;;10.00;0.75;;;6.50;99.90;;;;;;5038882;28;20029;-80
2023/12/20 03:27:47;;;;;;;10.88;0.60;;;6.40;99.90;;;;;;5050876;28;20435;-81
2023/12/20 03:30:13;;;;;;;11.20;1.02;;;6.40;99.90;;;;;;5044051;28;20256;-82
2023/12/20 03:32:39;;;;;;;11.23;0.90;;;6.40;99.90;;;;;;5046666;28;20449;-83
2023/12/20 03:35:05;;;;;;;13.65;1.30;;;6.50;99.90;;;;;;5048724;28;20062;-84
2023/12/20 03:37:31;;;;;;;15.73;0.77;;;6.50;99.90;;;;;;5035786;28;20119;-83
2023/12/20 03:39:57;;;;;;;9.30;1.15;;;6.40;99.90;;;;;;5040066;28;20128;-83
2023/12/20 03:42:22;;;;;;;11.77;0.70;;;6.40;99.90;;;;;;5049642;28;20035;-81
2023/12/20 03:44:48;;;;;;;11.13;0.85;;;6.20;99.90;;;;;;5049049;28;20029;-83
2023/12/20 03:47:13;;;;;;;12.85;0.95;;;6.20;99.90;;;;;;5049655;28;20029;-82
2023/12/20 03:49:39;;;;;;;13.52;1.15;;;6.20;99.90;;;;;;5038402;28;20048;-82
2023/12/20 03:52:05;;;;;;;12.27;0.70;;;6.20;99.90;;;;;;5047250;28;20179;-80
2023/12/20 03:54:30;;;;;;;11.20;1.15;;;6.00;99.90;;;;;;5047066;28;20041;-79
2023/12/20 03:56:56;;;;;;;9.90;1.00;;;6.10;99.90;;;;;;5049358;28;20021;-80
2023/12/20 03:59:22;;;;;;;10.15;1.13;;;6.10;99.90;;;;;;5046207;28;20040;-78
2023/12/20 04:01:47;;;;;;;16.10;1.02;;;6.00;99.90;;;;;;5073688;28;20029;-79
2023/12/20 04:04:14;;;;;;;14.20;1.08;;;6.10;99.90;;;;;;5048119;28;20579;-82
2023/12/20 04:06:40;;;;;;;12.55;1.02;;;6.20;99.90;;;;;;5049052;28;20037;-81
2023/12/20 04:09:05;;;;;;;16.63;1.60;;;6.20;99.90;;;;;;5046929;28;20040;-81
2023/12/20 04:11:31;;;;;;;14.98;1.67;;;6.20;99.90;;;;;;5058923;28;20112;-80
2023/12/20 04:13:57;;;;;;;7.90;0.70;;;6.20;99.90;;;;;;5046944;28;20025;-82
2023/12/20 04:16:22;;;;;;;13.73;1.10;;;6.10;99.90;;;;;;5047004;28;20036;-81
2023/12/20 04:18:48;;;;;;;11.43;0.98;;;6.20;99.90;;;;;;5079154;28;20053;-82
2023/12/20 04:21:14;;;;;;;10.35;1.38;;;6.20;99.90;;;;;;5077078;28;20477;-80
2023/12/20 04:23:39;;;;;;;9.18;1.15;;;6.20;99.90;;;;;;5048492;28;20021;-81
2023/12/20 04:26:05;;;;;;;7.75;1.15;;;6.30;99.90;;;;;;5046057;28;20048;-81
2023/12/20 04:28:31;;;;;;;15.30;1.23;;;6.30;99.90;;;;;;5042440;28;20025;-80
2023/12/20 04:30:56;;;;;;;16.80;1.05;;;6.40;99.90;;;;;;5046433;28;20095;-80
2023/12/20 04:33:22;;;;;;;11.77;1.25;;;6.40;99.90;;;;;;5063760;28;20522;-81
2023/12/20 04:35:48;;;;;;;11.95;1.00;;;6.50;99.90;;;;;;5048030;28;20040;-81
2023/12/20 04:38:14;;;;;;;16.85;0.95;;;6.50;99.90;;;;;;5035439;28;20029;-80
2023/12/20 04:40:40;;;;;;;9.57;0.95;;;6.40;99.90;;;;;;5046080;28;20043;-81
2023/12/20 04:43:07;;;;;;;7.05;1.08;;;6.40;99.90;;;;;;5037139;28;20025;-80
2023/12/20 04:45:33;;;;;;;11.50;1.10;;;6.30;99.90;;;;;;5044989;28;20040;-80
2023/12/20 04:47:58;;;;;;;9.50;1.05;;;6.20;99.90;;;;;;5046528;28;20025;-80
2023/12/20 04:50:24;;;;;;;12.90;0.95;;;6.30;99.90;;;;;;5047971;28;20033;-82
2023/12/20 04:52:50;;;;;;;13.75;1.17;;;6.20;99.90;;;;;;5037333;28;20024;-79
2023/12/20 04:55:16;;;;;;;14.80;1.20;;;6.30;99.90;;;;;;5043772;28;20485;-82
2023/12/20 04:57:42;;;;;;;15.00;1.42;;;6.30;99.90;;;;;;5042932;28;20032;-81
2023/12/20 05:00:08;;;;;;;13.32;1.13;;;6.40;99.90;;;;;;5046185;28;20029;-79
2023/12/20 05:02:35;;;;;;;13.70;1.23;;;6.30;99.90;;;;;;5059538;28;20116;-83
2023/12/20 05:05:01;;;;;;;8.00;0.93;;;6.20;99.90;;;;;;5063628;28;20433;-80
2023/12/20 05:07:27;;;;;;;16.98;0.80;;;6.30;99.90;;;;;;5064261;28;20052;-79
2023/12/20 05:09:53;;;;;;;16.77;0.80;;;6.30;99.90;;;;;;5048096;28;20047;-81
2023/12/20 05:12:19;;;;;;;11.10;0.70;;;6.40;99.90;;;;;;5043008;28;20111;-81
2023/12/20 05:14:44;;;;;;;13.07;0.88;;;6.30;99.90;;;;;;5043022;28;20449;-83
2023/12/20 05:17:10;;;;;;;6.93;0.55;;;6.30;99.90;;;;;;5044930;28;20520;-82
2023/12/20 05:19:36;;;;;;;10.43;0.90;;;6.30;99.90;;;;;;5064286;28;20490;-81
2023/12/20 05:22:02;;;;;;;6.45;0.45;;;6.30;99.90;;;;;;5047393;28;20082;-81
2023/12/20 05:24:28;;;;;;;9.25;0.63;;;6.30;99.90;;;;;;5047597;28;20060;-80
2023/12/20 05:26:53;;;;;;;9.52;0.70;;;6.30;99.90;;;;;;5035321;28;20537;-80
2023/12/20 05:29:19;;;;;;;10.27;0.70;;;6.30;99.90;;;;;;5039193;28;20389;-79
2023/12/20 05:31:45;;;;;;;11.23;0.70;;;6.30;99.90;;;;;;5048226;28;20061;-82
2023/12/20 05:34:11;;;;;;;12.77;0.82;;;6.40;99.90;;;;;;5044907;28;20067;-82
2023/12/20 05:36:38;;;;;;;15.98;1.27;;;6.40;99.90;;;;;;5043039;28;20465;-79
2023/12/20 05:39:04;;;;;;;14.82;1.48;;;6.50;99.90;;;;;;5042425;28;20057;-80
2023/12/20 05:41:30;;;;;;;11.05;1.00;;;6.50;99.90;;;;;;5044673;28;20060;-81
2023/12/20 05:43:57;;;;;;;7.00;0.80;;;6.60;99.90;;;;;;5043200;28;20426;-80
2023/12/20 05:46:23;;;;;;;11.05;1.00;;;6.50;99.90;;;;;;5036315;28;20124;-79
2023/12/20 05:48:49;;;;;;;10.27;1.20;;;6.60;99.90;;;;;;5020798;28;20544;-79
2023/12/20 05:51:15;;;;;;;8.57;0.50;;;6.60;99.90;;;;;;5046499;28;20033;-81
2023/12/20 05:53:40;;;;;;;10.43;0.77;;;6.60;99.90;;;;;;5061039;28;20040;-79
2023/12/20 05:56:06;;;;;;;14.63;1.20;;;6.70;99.90;;;;;;5046728;28;20052;-80
2023/12/20 05:58:33;;;;;;;16.90;1.27;;;6.70;99.90;;;;;;5047348;28;20477;-81
2023/12/20 06:00:59;;;;;;;10.55;1.08;;;6.70;99.90;;;;;;5047145;28;20037;-80
2023/12/20 06:03:25;;;;;;;5.32;0.75;;;6.80;99.90;;;;;;5044227;28;20116;-82
2023/12/20 06:05:50;;;;;;;12.13;1.02;;;6.80;99.90;;;;;;5033161;28;20068;-80
2023/12/20 06:08:16;;;;;;;17.20;1.40;;;6.80;99.90;;;;;;5063870;28;20040;-80
2023/12/20 06:10:41;;;;;;;11.52;1.10;;;6.80;99.90;;;;;;5056697;28;20025;-80
2023/12/20 06:13:07;;;;;;;14.57;0.98;;;6.80;99.90;;;;;;5045364;28;20563;-79
2023/12/20 06:15:33;;;;;;;22.67;1.58;;;6.90;99.90;;;;;;5043681;28;20152;-80
2023/12/20 06:17:58;;;;;;;15.30;1.00;;;6.90;99.90;;;;;;5046811;28;20032;-83
2023/12/20 06:20:24;;;;;;;11.98;0.80;;;6.90;99.90;;;;;;5042469;28;20037;-80
2023/12/20 06:22:50;;;;;;;12.27;0.75;;;6.90;99.90;;;;;;5059442;28;20036;-80
2023/12/20 06:25:16;;;;;;;14.73;1.38;;;7.00;99.90;;;;;;5044450;28;20716;-81
2023/12/20 06:27:42;;;;;;;16.80;1.15;;;7.00;99.90;;;;;;5043498;28;20116;-83
2023/12/20 06:30:11;;;;;;;11.30;0.68;;;7.00;99.90;;;;;;5041859;28;20121;-81
2023/12/20 06:32:37;;;;;;;14.90;1.13;;;7.00;99.90;;;;;;5049750;28;20308;-81
2023/12/20 06:35:04;;;;;;;15.10;1.00;;;7.00;99.90;;;;;;5047532;28;20025;-81
2023/12/20 06:37:30;;;;;;;19.02;1.08;;;7.10;99.90;;;;;;5040590;28;20029;-80
2023/12/20 06:39:56;;;;;;;13.88;0.90;;;7.00;99.90;;;;;;5037277;28;20527;-80
2023/12/20 06:42:22;;;;;;;18.08;1.77;;;6.90;99.90;;;;;;5047271;28;20067;-79
2023/12/20 06:44:48;;;;;;;13.32;1.08;;;6.90;99.90;;;;;;5038006;28;20797;-81
2023/12/20 06:47:14;;;;;;;12.52;1.10;;;6.90;99.90;;;;;;5044413;28;20030;-81
2023/12/20 06:49:40;;;;;;;12.93;1.13;;;6.90;99.90;;;;;;5040785;28;20029;-80
2023/12/20 06:52:06;;;;;;;12.23;1.45;;;6.90;99.90;;;;;;5041891;28;20047;-79
2023/12/20 06:54:34;;;;;;;13.57;1.10;;;6.90;99.90;;;;;;5047128;28;20028;-80
2023/12/20 06:56:59;;;;;;;15.30;1.33;;;6.90;99.90;;;;;;5049117;28;20481;-81
2023/12/20 06:59:25;;;;;;;11.18;1.08;;;6.90;99.90;;;;;;5046052;28;20047;-81
2023/12/20 07:01:51;;;;;;;12.25;1.10;;;6.90;99.90;;;;;;5065871;28;20032;-80
2023/12/20 07:04:21;;;;;;;15.40;1.30;;;6.90;99.90;;;;;;5048704;28;20029;-82
2023/12/20 07:06:47;;;;;;;;;;;6.90;99.90;;;;;;5035063;28;20048;-81
2023/12/20 07:09:13;;;;;;;14.32;0.98;;;6.90;99.90;;;;;;5044207;28;19955;-83
2023/12/20 07:11:39;;;;;;;14.80;1.27;;;6.90;99.90;;;;;;5059969;28;20033;-82
2023/12/20 07:14:05;;;;;;;20.02;1.33;;;6.90;99.90;;;;;;5050116;28;20021;-81
2023/12/20 07:16:31;;;;;;;12.65;1.10;;;6.90;99.90;;;;;;5034217;28;20489;-80
2023/12/20 07:18:57;;;;;;;21.00;2.72;;;6.90;99.90;;;;;;5066214;28;20033;-80
2023/12/20 07:21:23;;;;;;;17.45;1.63;;;6.90;99.90;;;;;;5044117;28;20025;-82
2023/12/20 07:23:48;;;;;;;16.58;1.40;;;6.90;99.90;;;;;;5050310;28;20329;-80
2023/12/20 07:26:14;;;;;;;20.40;1.42;;;6.90;99.90;;;;;;5048521;28;20111;-80
2023/12/20 07:28:40;;;;;;;12.95;1.23;;;6.90;99.90;;;;;;5048288;28;20033;-81
2023/12/20 07:31:06;;;;;;;14.77;1.50;;;6.90;99.90;;;;;;5038697;28;20043;-80
2023/12/20 07:33:32;;;;;;;21.83;1.98;;;7.00;99.90;;;;;;5065540;28;20021;-80
2023/12/20 07:35:59;;;;;;;15.63;1.10;;;6.90;99.90;;;;;;5047869;28;20036;-81
2023/12/20 07:38:25;;;;;;;11.27;1.20;;;6.90;99.90;;;;;;5047051;28;20025;-81
2023/12/20 07:40:51;;;;;;;15.27;1.55;;;6.90;99.90;;;;;;5044391;28;20040;-81
2023/12/20 07:43:16;;;;;;;13.68;1.02;;;6.90;99.90;;;;;;5047966;28;20025;-80
2023/12/20 07:45:42;;;;;;;20.60;1.65;;;6.90;99.90;;;;;;5042928;28;20521;-80
2023/12/20 07:48:08;;;;;;;8.82;0.80;;;6.90;99.90;;;;;;5047292;28;20482;-80
2023/12/20 07:50:34;;;;;;;18.23;0.95;;;6.90;99.90;;;;;;5048539;28;20061;-80
2023/12/20 07:53:00;;;;;;;12.68;1.00;;;6.90;99.90;;;;;;5050005;28;20055;-81
2023/12/20 07:55:26;;;;;;;11.75;0.68;;;6.90;99.90;;;;;;5048261;28;20029;-82
2023/12/20 07:57:52;;;;;;;10.25;0.90;;;6.90;99.90;;;;;;5048372;28;20024;-82
2023/12/20 08:00:18;;;;;;;12.65;1.05;;;6.90;99.90;;;;;;5037671;28;20033;-81
2023/12/20 08:02:45;;;;;;;12.82;0.80;;;7.00;99.90;;;;;;5079294;28;20094;-80
2023/12/20 08:05:10;;;;;;;19.55;1.67;;;6.90;99.90;;;;;;5080559;28;20040;-82
2023/12/20 08:07:36;;;;;;;14.00;1.25;;;6.90;99.90;;;;;;5032266;28;20039;-82
2023/12/20 08:10:02;;;;;;;18.70;1.63;;;7.00;99.90;;;;;;5047722;28;20485;-80
2023/12/20 08:12:27;;;;;;;11.77;0.50;;;7.00;99.90;;;;;;5075827;28;20029;-80
2023/12/20 08:14:54;;;;;;;13.90;0.95;;;7.00;99.90;;;;;;5039661;28;20052;-81
2023/12/20 08:17:20;;;;;;;13.95;2.03;;;7.00;99.90;;;;;;5037273;28;20055;-81
2023/12/20 08:19:45;;;;;;;16.42;1.38;;;7.00;99.90;;;;;;5047852;28;20037;-81
2023/12/20 08:22:11;;;;;;;16.92;1.38;;;7.00;99.90;;;;;;5078530;28;20028;-82
2023/12/20 08:24:37;;;;;;;14.50;0.93;;;7.00;99.90;;;;;;5077334;28;20025;-82
2023/12/20 08:27:04;;;;;;;12.07;0.90;;;7.00;99.90;;;;;;5048322;28;20369;-82
2023/12/20 08:29:30;;;;;;;10.60;1.08;;;7.10;99.90;;;;;;5027188;28;20088;-82
2023/12/20 08:31:56;;;;;;;20.50;1.58;;;7.10;99.90;;;;;;5045795;28;20505;-81
2023/12/20 08:34:23;;;;;;;13.02;1.27;;;7.20;99.90;;;;;;5047791;28;20025;-81
2023/12/20 08:36:51;;;;;;;12.55;0.73;;;7.20;99.90;;;;;;5042132;28;20025;-81
2023/12/20 08:39:16;;;;;;;14.63;1.90;;;7.10;99.90;;;;;;5035246;28;20115;-81
2023/12/20 08:41:43;;;;;;;12.93;0.90;;;7.20;99.90;;;;;;5047805;28;20036;-82
2023/12/20 08:44:09;;;;;;;17.45;1.25;;;7.20;99.90;;;;;;5043113;28;20036;-82
2023/12/20 08:46:35;;;;;;;12.27;1.02;;;7.20;99.90;;;;;;5065365;28;20247;-82
2023/12/20 08:49:01;;;;;;;13.43;0.88;;;7.20;99.90;;;;;;5047221;28;20025;-84
2023/12/20 08:51:27;;;;;;;14.13;1.92;;;7.10;99.90;;;;;;5046893;28;20029;-82
2023/12/20 08:53:53;;;;;;;17.13;0.82;;;7.10;99.90;;;;;;5030861;28;20165;-83
2023/12/20 08:56:19;;;;;;;10.02;0.90;;;7.10;99.90;;;;;;5046609;28;20028;-81
2023/12/20 08:58:46;;;;;;;10.50;0.70;;;7.10;99.90;;;;;;5046490;28;20488;-81
2023/12/20 09:01:13;;;;;;;4.47;0.40;;;7.00;99.90;;;;;;5044241;28;20094;-80
2023/12/20 09:03:39;;;;;;;6.88;0.50;;;7.00;99.90;;;;;;5045566;28;20099;-81
2023/12/20 09:06:05;;;;;;;11.18;0.98;;;7.00;99.90;;;;;;5046196;28;20025;-81
2023/12/20 09:08:31;;;;;;;6.05;0.60;;;6.90;99.90;;;;;;5038225;28;20029;-81
2023/12/20 09:10:57;;;;;;;7.60;0.65;;;6.90;99.90;;;;;;5047765;28;20024;-82
2023/12/20 09:13:27;;;;;;;9.73;0.77;;;6.90;99.90;;;;;;5046333;28;20044;-81
2023/12/20 09:15:54;;;;;;;11.55;0.85;;;6.80;99.90;;;;;;5043456;28;20044;-79
2023/12/20 09:18:20;;;;;;;8.55;1.00;;;6.80;99.90;;;;;;5035218;28;20029;-79
2023/12/20 09:20:46;;;;;;;10.45;0.60;;;6.80;99.90;;;;;;5043147;28;22344;-80
2023/12/20 09:23:11;;;;;;;13.48;1.33;;;6.80;99.90;;;;;;5079134;28;20413;-80
2023/12/20 09:25:37;;;;;;;12.35;1.20;;;6.80;99.90;;;;;;5046972;28;20021;-80
2023/12/20 09:28:03;;;;;;;10.25;0.63;;;6.90;99.90;;;;;;5061605;28;20017;-80
2023/12/20 09:30:29;;;;;;;10.18;0.75;;;6.90;99.90;;;;;;5046394;28;20056;-79
2023/12/20 09:32:55;;;;;;;17.50;1.05;;;6.90;99.90;;;;;;5042522;28;20495;-80
2023/12/20 09:35:20;;;;;;;13.55;0.90;;;6.90;99.90;;;;;;5033463;28;20070;-80
2023/12/20 09:37:46;;;;;;;10.13;0.88;;;6.90;99.90;;;;;;5046369;28;20033;-81
2023/12/20 09:40:18;;;;;;;11.15;1.25;;;6.90;99.90;;;;;;5039896;28;20514;-80
2023/12/20 09:42:57;;;;;;;12.10;0.80;;;6.90;99.90;;;;;;5033378;28;20497;-80
2023/12/20 09:45:23;;;;;;;9.48;0.77;;;6.90;99.90;;;;;;5042992;28;20508;-81
2023/12/20 09:47:56;;;;;;;11.48;0.93;;;7.00;99.90;;;;;;5042711;28;20478;-81
2023/12/20 09:50:22;;;;;;;15.73;1.48;;;6.90;99.90;;;;;;5062088;28;20060;-81
2023/12/20 09:52:52;;;;;;;17.10;1.70;;;6.90;99.90;;;;;;5077410;28;20029;-80
2023/12/20 09:55:19;;;;;;;8.63;1.08;;;7.00;99.90;;;;;;5042929;28;20032;-81
2023/12/20 09:57:46;;;;;;;7.00;0.50;;;7.00;99.90;;;;;;5030191;28;20164;-83
2023/12/20 10:00:13;;;;;;;12.00;0.90;;;7.10;99.90;;;;;;5040499;28;20488;-79
2023/12/20 10:02:46;;;;;;;7.43;0.52;;;7.00;99.90;;;;;;5027547;28;20017;-82
2023/12/20 10:05:18;;;;;;;16.55;1.13;;;7.10;99.90;;;;;;5035105;28;20036;-80
2023/12/20 10:07:45;;;;;;;11.85;1.10;;;7.10;99.90;;;;;;5079963;28;20026;-81
2023/12/20 10:10:13;;;;;;;12.25;1.10;;;7.10;99.90;;;;;;5044172;28;20033;-80
2023/12/20 10:12:38;;;;;;;12.30;0.85;;;7.10;99.90;;;;;;5079369;28;20124;-81
2023/12/20 10:15:05;;;;;;;16.63;1.23;;;7.20;99.90;;;;;;5050882;28;20139;-80
2023/12/20 10:17:31;;;;;;;12.63;1.60;;;7.20;99.90;;;;;;5047112;28;20040;-80
2023/12/20 10:19:58;;;;;;;14.70;1.23;;;7.20;99.90;;;;;;5078223;28;20037;-79
2023/12/20 10:22:24;;;;;;;8.27;1.13;;;7.30;99.90;;;;;;5050386;28;20376;-79
2023/12/20 10:24:49;;;;;;;12.48;1.25;;;7.30;99.90;;;;;;5046519;28;20336;-79
2023/12/20 10:27:19;;;;;;;13.73;1.13;;;7.30;99.90;;;;;;5037218;28;20017;-80
2023/12/20 10:29:45;;;;;;;17.73;1.23;;;7.30;99.90;;;;;;5049747;28;20037;-80
2023/12/20 10:32:24;;;;;;;13.73;1.10;;;7.30;99.90;;;;;;5049075;28;20029;-80
2023/12/20 10:34:51;;;;;;;26.95;2.58;;;7.40;99.90;;;;;;5048528;28;20035;-79
2023/12/20 10:37:17;;;;;;;17.10;1.48;;;7.40;99.90;;;;;;5049863;28;20025;-79
2023/12/20 10:39:43;;;;;;;15.38;1.48;;;7.40;99.90;;;;;;5075913;28;20044;-79
2023/12/20 10:42:13;;;;;;;16.20;1.38;;;7.40;99.90;;;;;;5046831;28;20017;-79
2023/12/20 10:44:39;;;;;;;17.48;1.05;;;7.40;99.90;;;;;;5047979;28;20489;-80
2023/12/20 10:47:06;;;;;;;16.17;1.20;;;7.40;99.90;;;;;;5038209;28;20063;-79
2023/12/20 10:49:36;;;;;;;19.35;3.15;;;7.50;99.90;;;;;;5074867;28;20029;-79
2023/12/20 10:52:03;;;;;;;20.25;1.40;;;7.50;99.90;;;;;;5042468;28;20028;-78
2023/12/20 10:54:29;;;;;;;17.80;1.30;;;7.50;99.90;;;;;;5080148;28;20524;-80
2023/12/20 10:56:58;;;;;;;18.70;0.98;;;7.50;99.90;;;;;;5048872;28;20021;-79
2023/12/20 10:59:24;;;;;;;16.20;2.03;;;7.50;99.90;;;;;;5048750;28;20794;-78
2023/12/20 11:01:54;;;;;;;12.20;0.88;;;7.50;99.90;;;;;;5030448;28;20034;-79
2023/12/20 11:04:26;;;;;;;18.33;1.45;;;7.40;99.90;;;;;;5047826;28;20033;-80
2023/12/20 11:06:59;;;;;;;17.30;1.13;;;7.50;99.90;;;;;;5062529;28;20026;-80
2023/12/20 11:09:44;;;;;;;16.73;1.20;;;7.50;99.90;;;;;;5045088;28;20040;-80
2023/12/20 11:12:16;;;;;;;20.70;1.45;;;7.50;99.90;;;;;;5041007;28;20052;-80
2023/12/20 11:14:57;;;;;;;12.00;0.90;;;7.50;99.90;;;;;;5064302;28;20032;-79
2023/12/20 11:17:23;;;;;;;11.75;0.90;;;7.60;99.90;;;;;;5043666;28;20022;-80
2023/12/20 11:19:52;;;;;;;16.38;1.25;;;7.70;99.90;;;;;;5044874;28;20044;-81
2023/12/20 11:22:22;;;;;;;10.75;0.98;;;7.60;99.90;;;;;;5080914;28;20054;-79
2023/12/20 11:24:48;;;;;;;15.10;1.08;;;7.70;99.90;;;;;;5038716;28;20383;-79
2023/12/20 11:27:14;;;;;;;20.00;1.50;;;7.70;99.90;;;;;;5035278;28;20492;-79
2023/12/20 11:29:41;;;;;;;13.60;1.50;;;7.70;99.90;;;;;;5044497;28;20029;-80
2023/12/20 11:32:25;;;;;;;15.95;1.45;;;7.70;99.90;;;;;;5043569;28;20020;-79
2023/12/20 11:34:53;;;;;;;12.43;0.77;;;7.70;99.90;;;;;;5043929;28;20043;-81
2023/12/20 11:37:20;;;;;;;14.65;0.90;;;7.70;99.90;;;;;;5049064;28;20385;-79
2023/12/20 11:39:53;;;;;;;16.25;1.65;;;7.80;99.90;;;;;;5045418;28;20050;-81
2023/12/20 11:42:20;;;;;;;16.73;1.58;;;7.80;99.90;;;;;;5047289;28;20012;-80
2023/12/20 11:44:46;;;;;;;16.33;1.05;;;7.80;99.90;;;;;;5042503;28;20457;-79
2023/12/20 11:47:13;;;;;;;19.50;1.38;;;7.90;99.90;;;;;;5044608;28;20021;-79
2023/12/20 11:49:40;;;;;;;15.00;1.33;;;7.90;99.90;;;;;;5064447;28;20031;-81
2023/12/20 11:52:05;;;;;;;12.30;0.98;;;8.00;99.90;;;;;;5045874;28;20044;-80
2023/12/20 11:54:31;;;;;;;16.15;1.80;;;8.10;99.90;;;;;;5044045;28;20025;-81
2023/12/20 11:56:57;;;;;;;17.20;2.17;;;8.10;99.90;;;;;;5043504;28;20028;-81
2023/12/20 11:59:23;;;;;;;17.77;1.55;;;8.10;99.90;;;;;;5044175;28;20037;-80
2023/12/20 12:01:55;;;;;;;18.27;0.90;;;8.10;99.90;;;;;;5062301;28;20127;-80
2023/12/20 12:04:20;;;;;;;10.63;1.10;;;8.10;99.90;;;;;;5079049;28;20025;-80
2023/12/20 12:06:46;;;;;;;10.02;0.80;;;8.10;99.90;;;;;;5046683;28;20035;-79
2023/12/20 12:09:11;;;;;;;16.60;1.17;;;8.10;99.90;;;;;;5047150;28;20115;-79
2023/12/20 12:11:37;;;;;;;12.40;0.82;;;8.10;99.90;;;;;;5061766;28;20021;-80
2023/12/20 12:14:03;;;;;;;10.80;0.80;;;8.10;99.90;;;;;;5078983;28;20091;-80
2023/12/20 12:16:29;;;;;;;14.45;1.50;;;8.10;99.90;;;;;;5077282;28;20359;-79
2023/12/20 12:18:59;;;;;;;21.83;1.23;;;8.10;99.90;;;;;;5046465;28;20029;-79
2023/12/20 12:21:25;;;;;;;16.10;1.08;;;8.10;99.90;;;;;;5044298;28;20116;-79
2023/12/20 12:23:51;;;;;;;12.43;0.80;;;8.10;99.90;;;;;;5078811;28;20292;-79
2023/12/20 12:26:17;;;;;;;10.23;0.77;;;8.10;99.90;;;;;;5061864;28;20036;-79
2023/12/20 12:28:43;;;;;;;21.02;1.58;;;8.10;99.90;;;;;;5079317;28;20029;-80
2023/12/20 12:31:12;;;;;;;19.63;1.67;;;8.10;99.90;;;;;;5064594;28;20700;-79
2023/12/20 12:33:38;;;;;;;14.18;1.20;;;8.10;99.90;;;;;;5078430;28;20068;-80
2023/12/20 12:36:07;;;;;;;16.88;1.52;;;8.20;99.90;;;;;;5045685;28;20608;-81
2023/12/20 12:38:32;;;;;;;14.68;0.80;;;8.20;99.90;;;;;;5077836;28;20111;-80
2023/12/20 12:41:00;;;;;;;11.15;0.77;;;8.20;99.90;;;;;;5046869;28;20647;-79
2023/12/20 12:43:25;;;;;;;9.25;0.80;;;8.20;99.90;;;;;;5037959;28;20393;-81
2023/12/20 12:45:51;;;;;;;8.93;1.10;;;8.30;99.90;;;;;;5078869;28;20028;-82